sensor_id;sensor_type;location;lat;lon;timestamp;P1;durP1;ratioP1;P2;durP2;ratioP2
21798;SDS011;24973;47.178;15.316;2023-02-23T00:00:18;14.07;;;8.80;;
21798;SDS011;24973;47.178;15.316;2023-02-23T00:03:13;12.80;;;8.93;;
21798;SDS011;24973;47.178;15.316;2023-02-23T00:06:04;14.90;;;9.37;;
21798;SDS011;24973;47.178;15.316;2023-02-23T00:08:53;11.07;;;7.27;;
21798;SDS011;24973;47.178;15.316;2023-02-23T00:11:43;13.97;;;9.80;;
21798;SDS011;24973;47.178;15.316;2023-02-23T00:14:33;15.23;;;8.97;;
21798;SDS011;24973;47.178;15.316;2023-02-23T00:17:24;15.90;;;9.13;;
21798;SDS011;24973;47.178;15.316;2023-02-23T00:20:13;11.77;;;7.93;;
21798;SDS011;24973;47.178;15.316;2023-02-23T00:23:04;11.83;;;7.93;;
21798;SDS011;24973;47.178;15.316;2023-02-23T00:25:52;12.20;;;8.47;;
21798;SDS011;24973;47.178;15.316;2023-02-23T00:28:42;15.50;;;8.97;;
21798;SDS011;24973;47.178;15.316;2023-02-23T00:31:31;16.37;;;8.37;;
21798;SDS011;24973;47.178;15.316;2023-02-23T00:34:21;14.30;;;9.00;;
21798;SDS011;24973;47.178;15.316;2023-02-23T00:37:10;13.47;;;8.77;;
21798;SDS011;24973;47.178;15.316;2023-02-23T00:40:01;13.53;;;9.43;;
21798;SDS011;24973;47.178;15.316;2023-02-23T00:42:51;14.80;;;10.50;;
21798;SDS011;24973;47.178;15.316;2023-02-23T00:45:39;17.73;;;9.33;;
21798;SDS011;24973;47.178;15.316;2023-02-23T00:48:29;17.40;;;10.17;;
21798;SDS011;24973;47.178;15.316;2023-02-23T00:51:17;13.80;;;8.77;;
21798;SDS011;24973;47.178;15.316;2023-02-23T00:54:06;13.47;;;8.90;;
21798;SDS011;24973;47.178;15.316;2023-02-23T00:56:58;15.07;;;9.23;;
21798;SDS011;24973;47.178;15.316;2023-02-23T00:59:47;18.10;;;8.70;;
21798;SDS011;24973;47.178;15.316;2023-02-23T01:02:36;16.07;;;9.47;;
21798;SDS011;24973;47.178;15.316;2023-02-23T01:05:24;16.70;;;9.60;;
21798;SDS011;24973;47.178;15.316;2023-02-23T01:08:13;13.07;;;8.60;;
21798;SDS011;24973;47.178;15.316;2023-02-23T01:11:04;17.30;;;9.80;;
21798;SDS011;24973;47.178;15.316;2023-02-23T01:13:57;20.40;;;10.23;;
21798;SDS011;24973;47.178;15.316;2023-02-23T01:16:48;11.40;;;7.37;;
21798;SDS011;24973;47.178;15.316;2023-02-23T01:19:36;17.23;;;9.10;;
21798;SDS011;24973;47.178;15.316;2023-02-23T01:22:25;12.43;;;9.90;;
21798;SDS011;24973;47.178;15.316;2023-02-23T01:25:14;18.40;;;10.70;;
21798;SDS011;24973;47.178;15.316;2023-02-23T01:28:04;18.37;;;10.13;;
21798;SDS011;24973;47.178;15.316;2023-02-23T01:30:55;16.50;;;9.40;;
21798;SDS011;24973;47.178;15.316;2023-02-23T01:33:44;9.67;;;8.20;;
21798;SDS011;24973;47.178;15.316;2023-02-23T01:36:34;19.83;;;10.23;;
21798;SDS011;24973;47.178;15.316;2023-02-23T01:39:24;13.47;;;9.00;;
21798;SDS011;24973;47.178;15.316;2023-02-23T01:42:13;18.27;;;9.97;;
21798;SDS011;24973;47.178;15.316;2023-02-23T01:48:23;17.40;;;11.37;;
21798;SDS011;24973;47.178;15.316;2023-02-23T01:51:15;13.83;;;9.83;;
21798;SDS011;24973;47.178;15.316;2023-02-23T01:54:07;19.03;;;10.07;;
21798;SDS011;24973;47.178;15.316;2023-02-23T01:57:02;12.63;;;8.80;;
21798;SDS011;24973;47.178;15.316;2023-02-23T01:59:53;20.30;;;10.00;;
21798;SDS011;24973;47.178;15.316;2023-02-23T02:02:42;18.17;;;10.13;;
21798;SDS011;24973;47.178;15.316;2023-02-23T02:05:32;14.50;;;9.60;;
21798;SDS011;24973;47.178;15.316;2023-02-23T02:08:24;20.37;;;9.70;;
21798;SDS011;24973;47.178;15.316;2023-02-23T02:11:15;16.63;;;9.93;;
21798;SDS011;24973;47.178;15.316;2023-02-23T02:14:17;19.43;;;10.97;;
21798;SDS011;24973;47.178;15.316;2023-02-23T02:17:11;14.57;;;10.80;;
21798;SDS011;24973;47.178;15.316;2023-02-23T02:24:03;18.80;;;11.23;;
21798;SDS011;24973;47.178;15.316;2023-02-23T02:27:40;14.80;;;9.70;;
21798;SDS011;24973;47.178;15.316;2023-02-23T02:31:20;20.33;;;10.53;;
21798;SDS011;24973;47.178;15.316;2023-02-23T02:38:38;13.70;;;10.40;;
21798;SDS011;24973;47.178;15.316;2023-02-23T02:41:40;18.27;;;11.33;;
21798;SDS011;24973;47.178;15.316;2023-02-23T02:44:40;15.33;;;11.30;;
21798;SDS011;24973;47.178;15.316;2023-02-23T02:47:38;16.47;;;11.87;;
21798;SDS011;24973;47.178;15.316;2023-02-23T02:50:31;18.47;;;11.10;;
21798;SDS011;24973;47.178;15.316;2023-02-23T02:53:29;20.70;;;10.03;;
21798;SDS011;24973;47.178;15.316;2023-02-23T02:56:31;16.50;;;9.10;;
21798;SDS011;24973;47.178;15.316;2023-02-23T02:59:26;17.33;;;9.83;;
21798;SDS011;24973;47.178;15.316;2023-02-23T03:02:33;20.17;;;10.57;;
21798;SDS011;24973;47.178;15.316;2023-02-23T03:05:43;24.57;;;12.17;;
21798;SDS011;24973;47.178;15.316;2023-02-23T03:08:56;23.33;;;11.03;;
21798;SDS011;24973;47.178;15.316;2023-02-23T03:12:11;15.07;;;11.67;;
21798;SDS011;24973;47.178;15.316;2023-02-23T03:15:35;20.93;;;10.57;;
21798;SDS011;24973;47.178;15.316;2023-02-23T03:19:01;14.80;;;10.33;;
21798;SDS011;24973;47.178;15.316;2023-02-23T03:22:17;21.70;;;11.23;;
21798;SDS011;24973;47.178;15.316;2023-02-23T03:25:33;16.07;;;9.80;;
21798;SDS011;24973;47.178;15.316;2023-02-23T03:28:53;17.13;;;10.83;;
21798;SDS011;24973;47.178;15.316;2023-02-23T03:32:06;16.43;;;10.07;;
21798;SDS011;24973;47.178;15.316;2023-02-23T03:35:22;16.67;;;11.37;;
21798;SDS011;24973;47.178;15.316;2023-02-23T03:38:34;19.80;;;11.20;;
21798;SDS011;24973;47.178;15.316;2023-02-23T03:41:48;20.03;;;11.40;;
21798;SDS011;24973;47.178;15.316;2023-02-23T03:44:57;17.50;;;9.90;;
21798;SDS011;24973;47.178;15.316;2023-02-23T03:48:11;16.60;;;11.03;;
21798;SDS011;24973;47.178;15.316;2023-02-23T03:51:20;18.20;;;9.47;;
21798;SDS011;24973;47.178;15.316;2023-02-23T03:54:29;17.00;;;9.57;;
21798;SDS011;24973;47.178;15.316;2023-02-23T03:57:41;20.17;;;11.40;;
21798;SDS011;24973;47.178;15.316;2023-02-23T04:00:52;20.80;;;12.00;;
21798;SDS011;24973;47.178;15.316;2023-02-23T04:04:02;16.67;;;11.60;;
21798;SDS011;24973;47.178;15.316;2023-02-23T04:07:11;14.60;;;9.93;;
21798;SDS011;24973;47.178;15.316;2023-02-23T04:10:21;16.23;;;10.90;;
21798;SDS011;24973;47.178;15.316;2023-02-23T04:13:32;18.63;;;10.30;;
21798;SDS011;24973;47.178;15.316;2023-02-23T04:16:23;21.90;;;11.87;;
21798;SDS011;24973;47.178;15.316;2023-02-23T04:19:11;21.70;;;12.37;;
21798;SDS011;24973;47.178;15.316;2023-02-23T04:21:59;19.10;;;12.00;;
21798;SDS011;24973;47.178;15.316;2023-02-23T04:24:48;17.37;;;10.30;;
21798;SDS011;24973;47.178;15.316;2023-02-23T04:27:37;21.07;;;12.50;;
21798;SDS011;24973;47.178;15.316;2023-02-23T04:30:27;26.60;;;13.60;;
21798;SDS011;24973;47.178;15.316;2023-02-23T04:33:16;21.67;;;11.60;;
21798;SDS011;24973;47.178;15.316;2023-02-23T04:36:05;19.47;;;12.10;;
21798;SDS011;24973;47.178;15.316;2023-02-23T04:38:54;26.70;;;11.80;;
21798;SDS011;24973;47.178;15.316;2023-02-23T04:41:43;24.73;;;10.77;;
21798;SDS011;24973;47.178;15.316;2023-02-23T04:44:34;20.03;;;11.87;;
21798;SDS011;24973;47.178;15.316;2023-02-23T04:47:24;19.87;;;11.17;;
21798;SDS011;24973;47.178;15.316;2023-02-23T04:50:13;18.90;;;12.20;;
21798;SDS011;24973;47.178;15.316;2023-02-23T04:53:02;18.87;;;10.83;;
21798;SDS011;24973;47.178;15.316;2023-02-23T04:55:51;19.87;;;11.93;;
21798;SDS011;24973;47.178;15.316;2023-02-23T04:58:40;21.87;;;12.27;;
21798;SDS011;24973;47.178;15.316;2023-02-23T05:01:29;22.03;;;11.87;;
21798;SDS011;24973;47.178;15.316;2023-02-23T05:04:19;19.60;;;11.70;;
21798;SDS011;24973;47.178;15.316;2023-02-23T05:07:08;20.03;;;11.23;;
21798;SDS011;24973;47.178;15.316;2023-02-23T05:09:57;23.40;;;11.17;;
21798;SDS011;24973;47.178;15.316;2023-02-23T05:12:45;16.57;;;11.00;;
21798;SDS011;24973;47.178;15.316;2023-02-23T05:15:34;22.83;;;11.30;;
21798;SDS011;24973;47.178;15.316;2023-02-23T05:18:24;19.57;;;12.23;;
21798;SDS011;24973;47.178;15.316;2023-02-23T05:21:14;17.83;;;10.47;;
21798;SDS011;24973;47.178;15.316;2023-02-23T05:24:04;18.80;;;12.37;;
21798;SDS011;24973;47.178;15.316;2023-02-23T05:26:53;17.80;;;10.07;;
21798;SDS011;24973;47.178;15.316;2023-02-23T05:29:41;24.30;;;13.20;;
21798;SDS011;24973;47.178;15.316;2023-02-23T05:32:30;23.43;;;11.53;;
21798;SDS011;24973;47.178;15.316;2023-02-23T05:35:20;19.37;;;11.87;;
21798;SDS011;24973;47.178;15.316;2023-02-23T05:38:11;21.33;;;12.60;;
21798;SDS011;24973;47.178;15.316;2023-02-23T05:41:03;18.73;;;12.43;;
21798;SDS011;24973;47.178;15.316;2023-02-23T05:43:53;20.77;;;11.27;;
21798;SDS011;24973;47.178;15.316;2023-02-23T05:46:43;23.90;;;12.10;;
21798;SDS011;24973;47.178;15.316;2023-02-23T05:49:33;21.17;;;14.00;;
21798;SDS011;24973;47.178;15.316;2023-02-23T05:52:22;37.40;;;19.20;;
21798;SDS011;24973;47.178;15.316;2023-02-23T05:55:12;42.63;;;20.30;;
21798;SDS011;24973;47.178;15.316;2023-02-23T05:58:01;54.00;;;26.43;;
21798;SDS011;24973;47.178;15.316;2023-02-23T06:00:50;39.53;;;20.87;;
21798;SDS011;24973;47.178;15.316;2023-02-23T06:03:39;22.43;;;14.10;;
21798;SDS011;24973;47.178;15.316;2023-02-23T06:06:28;24.47;;;12.47;;
21798;SDS011;24973;47.178;15.316;2023-02-23T06:09:16;21.23;;;12.27;;
21798;SDS011;24973;47.178;15.316;2023-02-23T06:12:06;21.83;;;13.57;;
21798;SDS011;24973;47.178;15.316;2023-02-23T06:14:55;25.03;;;13.00;;
21798;SDS011;24973;47.178;15.316;2023-02-23T06:17:44;31.83;;;13.60;;
21798;SDS011;24973;47.178;15.316;2023-02-23T06:20:33;25.37;;;13.53;;
21798;SDS011;24973;47.178;15.316;2023-02-23T06:23:23;21.17;;;12.23;;
21798;SDS011;24973;47.178;15.316;2023-02-23T06:26:12;23.20;;;13.67;;
21798;SDS011;24973;47.178;15.316;2023-02-23T06:29:02;20.53;;;12.30;;
21798;SDS011;24973;47.178;15.316;2023-02-23T06:31:51;16.87;;;11.10;;
21798;SDS011;24973;47.178;15.316;2023-02-23T06:34:40;22.47;;;12.13;;
21798;SDS011;24973;47.178;15.316;2023-02-23T06:37:30;19.70;;;12.83;;
21798;SDS011;24973;47.178;15.316;2023-02-23T06:40:19;22.63;;;11.77;;
21798;SDS011;24973;47.178;15.316;2023-02-23T06:43:08;26.17;;;14.23;;
21798;SDS011;24973;47.178;15.316;2023-02-23T06:45:58;25.70;;;13.80;;
21798;SDS011;24973;47.178;15.316;2023-02-23T06:48:47;22.80;;;13.90;;
21798;SDS011;24973;47.178;15.316;2023-02-23T06:51:36;24.07;;;12.37;;
21798;SDS011;24973;47.178;15.316;2023-02-23T06:54:24;27.27;;;12.87;;
21798;SDS011;24973;47.178;15.316;2023-02-23T06:57:13;20.53;;;11.00;;
21798;SDS011;24973;47.178;15.316;2023-02-23T07:00:02;24.43;;;12.40;;
21798;SDS011;24973;47.178;15.316;2023-02-23T07:02:53;19.40;;;11.80;;
21798;SDS011;24973;47.178;15.316;2023-02-23T07:05:45;25.60;;;11.93;;
21798;SDS011;24973;47.178;15.316;2023-02-23T07:08:34;20.17;;;12.03;;
21798;SDS011;24973;47.178;15.316;2023-02-23T07:11:22;27.10;;;11.43;;
21798;SDS011;24973;47.178;15.316;2023-02-23T07:14:11;22.67;;;12.77;;
21798;SDS011;24973;47.178;15.316;2023-02-23T07:17:07;23.30;;;13.10;;
21798;SDS011;24973;47.178;15.316;2023-02-23T07:19:59;26.80;;;13.73;;
21798;SDS011;24973;47.178;15.316;2023-02-23T07:22:49;21.60;;;13.07;;
21798;SDS011;24973;47.178;15.316;2023-02-23T07:25:38;21.50;;;11.37;;
21798;SDS011;24973;47.178;15.316;2023-02-23T07:28:27;23.63;;;11.93;;
21798;SDS011;24973;47.178;15.316;2023-02-23T07:31:16;20.53;;;12.83;;
21798;SDS011;24973;47.178;15.316;2023-02-23T07:34:05;25.80;;;12.37;;
21798;SDS011;24973;47.178;15.316;2023-02-23T07:36:56;26.00;;;13.13;;
21798;SDS011;24973;47.178;15.316;2023-02-23T07:39:44;19.27;;;10.73;;
21798;SDS011;24973;47.178;15.316;2023-02-23T07:42:33;24.00;;;12.57;;
21798;SDS011;24973;47.178;15.316;2023-02-23T07:45:22;24.63;;;13.40;;
21798;SDS011;24973;47.178;15.316;2023-02-23T07:48:11;23.50;;;12.83;;
21798;SDS011;24973;47.178;15.316;2023-02-23T07:50:59;22.07;;;13.23;;
21798;SDS011;24973;47.178;15.316;2023-02-23T07:53:50;20.30;;;12.37;;
21798;SDS011;24973;47.178;15.316;2023-02-23T07:56:39;22.87;;;13.03;;
21798;SDS011;24973;47.178;15.316;2023-02-23T07:59:28;20.27;;;12.80;;
21798;SDS011;24973;47.178;15.316;2023-02-23T08:02:17;22.47;;;13.27;;
21798;SDS011;24973;47.178;15.316;2023-02-23T08:05:06;22.27;;;13.70;;
21798;SDS011;24973;47.178;15.316;2023-02-23T08:07:56;22.27;;;13.33;;
21798;SDS011;24973;47.178;15.316;2023-02-23T08:10:46;25.47;;;12.23;;
21798;SDS011;24973;47.178;15.316;2023-02-23T08:13:35;25.30;;;13.43;;
21798;SDS011;24973;47.178;15.316;2023-02-23T08:16:25;20.97;;;13.20;;
21798;SDS011;24973;47.178;15.316;2023-02-23T08:19:14;18.00;;;13.30;;
21798;SDS011;24973;47.178;15.316;2023-02-23T08:22:02;16.90;;;12.53;;
21798;SDS011;24973;47.178;15.316;2023-02-23T08:24:55;18.27;;;12.97;;
21798;SDS011;24973;47.178;15.316;2023-02-23T08:27:45;18.73;;;13.43;;
21798;SDS011;24973;47.178;15.316;2023-02-23T08:30:34;23.07;;;13.30;;
21798;SDS011;24973;47.178;15.316;2023-02-23T08:33:23;22.77;;;13.03;;
21798;SDS011;24973;47.178;15.316;2023-02-23T08:36:12;22.40;;;14.10;;
21798;SDS011;24973;47.178;15.316;2023-02-23T08:39:00;18.10;;;12.37;;
21798;SDS011;24973;47.178;15.316;2023-02-23T08:41:52;17.17;;;12.57;;
21798;SDS011;24973;47.178;15.316;2023-02-23T08:44:42;21.70;;;12.30;;
21798;SDS011;24973;47.178;15.316;2023-02-23T08:47:31;21.60;;;12.80;;
21798;SDS011;24973;47.178;15.316;2023-02-23T08:50:20;20.60;;;11.77;;
21798;SDS011;24973;47.178;15.316;2023-02-23T08:53:09;21.17;;;11.47;;
21798;SDS011;24973;47.178;15.316;2023-02-23T08:55:59;20.30;;;11.87;;
21798;SDS011;24973;47.178;15.316;2023-02-23T08:58:50;23.20;;;12.07;;
21798;SDS011;24973;47.178;15.316;2023-02-23T09:01:40;17.30;;;12.87;;
21798;SDS011;24973;47.178;15.316;2023-02-23T09:04:30;17.53;;;11.90;;
21798;SDS011;24973;47.178;15.316;2023-02-23T09:07:21;18.27;;;11.20;;
21798;SDS011;24973;47.178;15.316;2023-02-23T09:10:12;21.80;;;12.23;;
21798;SDS011;24973;47.178;15.316;2023-02-23T09:13:01;18.27;;;11.20;;
21798;SDS011;24973;47.178;15.316;2023-02-23T09:15:50;21.23;;;12.10;;
21798;SDS011;24973;47.178;15.316;2023-02-23T09:18:41;21.97;;;12.57;;
21798;SDS011;24973;47.178;15.316;2023-02-23T09:21:30;19.77;;;10.47;;
21798;SDS011;24973;47.178;15.316;2023-02-23T09:24:20;19.13;;;10.80;;
21798;SDS011;24973;47.178;15.316;2023-02-23T09:27:08;27.03;;;14.57;;
21798;SDS011;24973;47.178;15.316;2023-02-23T09:29:58;20.53;;;12.83;;
21798;SDS011;24973;47.178;15.316;2023-02-23T09:32:47;20.33;;;11.03;;
21798;SDS011;24973;47.178;15.316;2023-02-23T09:35:38;17.07;;;11.83;;
21798;SDS011;24973;47.178;15.316;2023-02-23T09:38:27;21.00;;;13.23;;
21798;SDS011;24973;47.178;15.316;2023-02-23T09:41:25;18.03;;;12.57;;
21798;SDS011;24973;47.178;15.316;2023-02-23T09:44:51;20.30;;;11.90;;
21798;SDS011;24973;47.178;15.316;2023-02-23T09:47:59;22.10;;;11.63;;
21798;SDS011;24973;47.178;15.316;2023-02-23T09:51:04;24.80;;;10.80;;
21798;SDS011;24973;47.178;15.316;2023-02-23T09:53:58;23.63;;;12.47;;
21798;SDS011;24973;47.178;15.316;2023-02-23T09:56:49;19.73;;;11.33;;
21798;SDS011;24973;47.178;15.316;2023-02-23T09:59:41;18.40;;;10.90;;
21798;SDS011;24973;47.178;15.316;2023-02-23T10:02:31;20.33;;;12.20;;
21798;SDS011;24973;47.178;15.316;2023-02-23T10:05:25;28.33;;;11.97;;
21798;SDS011;24973;47.178;15.316;2023-02-23T10:08:21;21.53;;;10.77;;
21798;SDS011;24973;47.178;15.316;2023-02-23T10:11:26;23.77;;;11.30;;
21798;SDS011;24973;47.178;15.316;2023-02-23T10:14:29;18.80;;;12.23;;
21798;SDS011;24973;47.178;15.316;2023-02-23T10:17:37;19.33;;;12.57;;
21798;SDS011;24973;47.178;15.316;2023-02-23T10:20:40;23.47;;;10.70;;
21798;SDS011;24973;47.178;15.316;2023-02-23T10:23:42;23.80;;;11.30;;
21798;SDS011;24973;47.178;15.316;2023-02-23T10:26:38;18.73;;;10.03;;
21798;SDS011;24973;47.178;15.316;2023-02-23T10:29:33;23.93;;;11.57;;
21798;SDS011;24973;47.178;15.316;2023-02-23T10:32:29;20.53;;;12.10;;
21798;SDS011;24973;47.178;15.316;2023-02-23T10:35:28;17.07;;;10.30;;
21798;SDS011;24973;47.178;15.316;2023-02-23T10:38:18;26.90;;;12.07;;
21798;SDS011;24973;47.178;15.316;2023-02-23T10:41:08;21.13;;;10.47;;
21798;SDS011;24973;47.178;15.316;2023-02-23T10:44:00;16.13;;;11.60;;
21798;SDS011;24973;47.178;15.316;2023-02-23T10:47:04;15.63;;;10.63;;
21798;SDS011;24973;47.178;15.316;2023-02-23T10:50:00;17.57;;;10.60;;
21798;SDS011;24973;47.178;15.316;2023-02-23T10:52:53;28.10;;;12.60;;
21798;SDS011;24973;47.178;15.316;2023-02-23T10:55:45;22.63;;;11.67;;
21798;SDS011;24973;47.178;15.316;2023-02-23T10:58:49;19.73;;;11.47;;
21798;SDS011;24973;47.178;15.316;2023-02-23T11:01:41;18.70;;;11.60;;
21798;SDS011;24973;47.178;15.316;2023-02-23T11:04:49;20.40;;;12.20;;
21798;SDS011;24973;47.178;15.316;2023-02-23T11:07:40;19.00;;;11.43;;
21798;SDS011;24973;47.178;15.316;2023-02-23T11:10:30;19.93;;;11.40;;
21798;SDS011;24973;47.178;15.316;2023-02-23T11:13:22;20.40;;;11.90;;
21798;SDS011;24973;47.178;15.316;2023-02-23T11:16:16;16.43;;;10.53;;
21798;SDS011;24973;47.178;15.316;2023-02-23T11:19:18;19.43;;;10.20;;
21798;SDS011;24973;47.178;15.316;2023-02-23T11:22:19;24.33;;;11.53;;
21798;SDS011;24973;47.178;15.316;2023-02-23T11:25:14;16.13;;;11.17;;
21798;SDS011;24973;47.178;15.316;2023-02-23T11:28:13;14.63;;;10.17;;
21798;SDS011;24973;47.178;15.316;2023-02-23T11:31:08;24.13;;;11.30;;
21798;SDS011;24973;47.178;15.316;2023-02-23T11:34:05;24.07;;;12.17;;
21798;SDS011;24973;47.178;15.316;2023-02-23T11:36:58;17.17;;;10.03;;
21798;SDS011;24973;47.178;15.316;2023-02-23T11:39:51;32.00;;;11.97;;
21798;SDS011;24973;47.178;15.316;2023-02-23T11:42:42;18.43;;;11.03;;
21798;SDS011;24973;47.178;15.316;2023-02-23T11:45:43;19.03;;;11.53;;
21798;SDS011;24973;47.178;15.316;2023-02-23T11:48:37;19.93;;;12.90;;
21798;SDS011;24973;47.178;15.316;2023-02-23T11:51:45;17.43;;;11.60;;
21798;SDS011;24973;47.178;15.316;2023-02-23T11:54:36;19.07;;;10.87;;
21798;SDS011;24973;47.178;15.316;2023-02-23T11:57:26;18.27;;;10.77;;
21798;SDS011;24973;47.178;15.316;2023-02-23T12:00:23;26.57;;;11.87;;
21798;SDS011;24973;47.178;15.316;2023-02-23T12:03:16;18.23;;;12.43;;
21798;SDS011;24973;47.178;15.316;2023-02-23T12:06:10;21.63;;;12.03;;
21798;SDS011;24973;47.178;15.316;2023-02-23T12:09:04;22.97;;;15.33;;
21798;SDS011;24973;47.178;15.316;2023-02-23T12:12:04;20.53;;;13.47;;
21798;SDS011;24973;47.178;15.316;2023-02-23T12:14:59;25.17;;;14.23;;
21798;SDS011;24973;47.178;15.316;2023-02-23T12:17:58;21.20;;;13.60;;
21798;SDS011;24973;47.178;15.316;2023-02-23T12:20:56;22.10;;;14.77;;
21798;SDS011;24973;47.178;15.316;2023-02-23T12:23:58;23.00;;;13.97;;
21798;SDS011;24973;47.178;15.316;2023-02-23T12:27:00;28.80;;;13.27;;
21798;SDS011;24973;47.178;15.316;2023-02-23T12:30:02;27.93;;;15.03;;
21798;SDS011;24973;47.178;15.316;2023-02-23T12:33:00;23.83;;;15.37;;
21798;SDS011;24973;47.178;15.316;2023-02-23T12:35:54;22.90;;;15.17;;
21798;SDS011;24973;47.178;15.316;2023-02-23T12:38:49;25.03;;;15.53;;
21798;SDS011;24973;47.178;15.316;2023-02-23T12:41:45;23.23;;;15.10;;
21798;SDS011;24973;47.178;15.316;2023-02-23T12:44:43;35.27;;;21.23;;
21798;SDS011;24973;47.178;15.316;2023-02-23T12:47:39;31.97;;;20.93;;
21798;SDS011;24973;47.178;15.316;2023-02-23T12:50:35;30.33;;;19.50;;
21798;SDS011;24973;47.178;15.316;2023-02-23T12:53:30;36.50;;;21.17;;
21798;SDS011;24973;47.178;15.316;2023-02-23T12:56:36;39.97;;;20.97;;
21798;SDS011;24973;47.178;15.316;2023-02-23T12:59:45;31.03;;;18.93;;
21798;SDS011;24973;47.178;15.316;2023-02-23T13:06:37;27.47;;;17.93;;
21798;SDS011;24973;47.178;15.316;2023-02-23T13:09:41;28.47;;;17.80;;
21798;SDS011;24973;47.178;15.316;2023-02-23T13:12:44;27.10;;;18.97;;
21798;SDS011;24973;47.178;15.316;2023-02-23T13:15:45;31.37;;;19.93;;
21798;SDS011;24973;47.178;15.316;2023-02-23T13:18:46;31.60;;;18.80;;
21798;SDS011;24973;47.178;15.316;2023-02-23T13:21:51;32.60;;;19.93;;
21798;SDS011;24973;47.178;15.316;2023-02-23T13:24:46;29.37;;;18.90;;
21798;SDS011;24973;47.178;15.316;2023-02-23T13:27:37;33.40;;;20.13;;
21798;SDS011;24973;47.178;15.316;2023-02-23T13:30:33;27.80;;;19.10;;
21798;SDS011;24973;47.178;15.316;2023-02-23T13:33:28;24.70;;;16.77;;
21798;SDS011;24973;47.178;15.316;2023-02-23T13:36:30;27.50;;;16.57;;
21798;SDS011;24973;47.178;15.316;2023-02-23T13:39:34;35.03;;;17.87;;
21798;SDS011;24973;47.178;15.316;2023-02-23T13:42:43;28.63;;;17.73;;
21798;SDS011;24973;47.178;15.316;2023-02-23T13:49:11;30.67;;;19.33;;
21798;SDS011;24973;47.178;15.316;2023-02-23T13:52:18;29.90;;;17.53;;
21798;SDS011;24973;47.178;15.316;2023-02-23T13:55:33;25.13;;;16.67;;
21798;SDS011;24973;47.178;15.316;2023-02-23T13:58:37;25.23;;;16.03;;
21798;SDS011;24973;47.178;15.316;2023-02-23T14:01:35;26.27;;;15.83;;
21798;SDS011;24973;47.178;15.316;2023-02-23T14:04:33;27.47;;;17.63;;
21798;SDS011;24973;47.178;15.316;2023-02-23T14:07:24;24.57;;;16.93;;
21798;SDS011;24973;47.178;15.316;2023-02-23T14:10:18;29.53;;;17.57;;
21798;SDS011;24973;47.178;15.316;2023-02-23T14:13:23;26.00;;;17.90;;
21798;SDS011;24973;47.178;15.316;2023-02-23T14:16:18;26.97;;;16.63;;
21798;SDS011;24973;47.178;15.316;2023-02-23T14:19:11;25.37;;;16.67;;
21798;SDS011;24973;47.178;15.316;2023-02-23T14:22:18;29.13;;;18.20;;
21798;SDS011;24973;47.178;15.316;2023-02-23T14:28:34;27.03;;;18.43;;
21798;SDS011;24973;47.178;15.316;2023-02-23T14:31:27;36.13;;;20.63;;
21798;SDS011;24973;47.178;15.316;2023-02-23T14:34:19;33.67;;;20.87;;
21798;SDS011;24973;47.178;15.316;2023-02-23T14:37:16;26.13;;;18.80;;
21798;SDS011;24973;47.178;15.316;2023-02-23T14:40:11;31.80;;;19.23;;
21798;SDS011;24973;47.178;15.316;2023-02-23T14:43:04;25.50;;;16.03;;
21798;SDS011;24973;47.178;15.316;2023-02-23T14:46:28;34.87;;;17.50;;
21798;SDS011;24973;47.178;15.316;2023-02-23T14:49:18;31.90;;;19.07;;
21798;SDS011;24973;47.178;15.316;2023-02-23T14:52:12;29.83;;;16.97;;
21798;SDS011;24973;47.178;15.316;2023-02-23T14:55:13;32.63;;;18.43;;
21798;SDS011;24973;47.178;15.316;2023-02-23T14:58:17;31.00;;;18.13;;
21798;SDS011;24973;47.178;15.316;2023-02-23T15:01:11;29.57;;;18.27;;
21798;SDS011;24973;47.178;15.316;2023-02-23T15:04:08;29.83;;;18.47;;
21798;SDS011;24973;47.178;15.316;2023-02-23T15:06:59;27.97;;;16.57;;
21798;SDS011;24973;47.178;15.316;2023-02-23T15:09:49;27.40;;;18.20;;
21798;SDS011;24973;47.178;15.316;2023-02-23T15:12:39;28.33;;;17.83;;
21798;SDS011;24973;47.178;15.316;2023-02-23T15:15:28;25.10;;;17.37;;
21798;SDS011;24973;47.178;15.316;2023-02-23T15:18:20;25.67;;;17.47;;
21798;SDS011;24973;47.178;15.316;2023-02-23T15:21:15;21.57;;;14.50;;
21798;SDS011;24973;47.178;15.316;2023-02-23T15:24:09;26.10;;;15.63;;
21798;SDS011;24973;47.178;15.316;2023-02-23T15:27:02;24.30;;;14.90;;
21798;SDS011;24973;47.178;15.316;2023-02-23T15:29:51;23.23;;;16.73;;
21798;SDS011;24973;47.178;15.316;2023-02-23T15:32:41;33.97;;;17.53;;
21798;SDS011;24973;47.178;15.316;2023-02-23T15:35:32;27.03;;;16.73;;
21798;SDS011;24973;47.178;15.316;2023-02-23T15:38:28;31.37;;;18.53;;
21798;SDS011;24973;47.178;15.316;2023-02-23T15:41:30;29.47;;;16.87;;
21798;SDS011;24973;47.178;15.316;2023-02-23T15:44:22;26.97;;;16.77;;
21798;SDS011;24973;47.178;15.316;2023-02-23T15:47:24;25.07;;;17.03;;
21798;SDS011;24973;47.178;15.316;2023-02-23T15:50:21;27.93;;;16.40;;
21798;SDS011;24973;47.178;15.316;2023-02-23T15:53:25;26.00;;;15.83;;
21798;SDS011;24973;47.178;15.316;2023-02-23T15:56:19;30.97;;;16.80;;
21798;SDS011;24973;47.178;15.316;2023-02-23T15:59:14;24.27;;;15.83;;
21798;SDS011;24973;47.178;15.316;2023-02-23T16:02:11;26.13;;;15.37;;
21798;SDS011;24973;47.178;15.316;2023-02-23T16:05:12;27.10;;;15.00;;
21798;SDS011;24973;47.178;15.316;2023-02-23T16:08:15;25.53;;;14.97;;
21798;SDS011;24973;47.178;15.316;2023-02-23T16:11:11;32.10;;;17.23;;
21798;SDS011;24973;47.178;15.316;2023-02-23T16:14:02;26.43;;;15.40;;
21798;SDS011;24973;47.178;15.316;2023-02-23T16:16:52;28.17;;;18.13;;
21798;SDS011;24973;47.178;15.316;2023-02-23T16:19:57;28.13;;;16.70;;
21798;SDS011;24973;47.178;15.316;2023-02-23T16:23:01;26.13;;;17.03;;
21798;SDS011;24973;47.178;15.316;2023-02-23T16:25:51;24.90;;;16.83;;
21798;SDS011;24973;47.178;15.316;2023-02-23T16:28:45;28.37;;;17.07;;
21798;SDS011;24973;47.178;15.316;2023-02-23T16:31:41;26.60;;;16.23;;
21798;SDS011;24973;47.178;15.316;2023-02-23T16:34:33;26.80;;;16.13;;
21798;SDS011;24973;47.178;15.316;2023-02-23T16:37:32;28.77;;;15.23;;
21798;SDS011;24973;47.178;15.316;2023-02-23T16:40:36;26.53;;;16.20;;
21798;SDS011;24973;47.178;15.316;2023-02-23T16:43:25;26.10;;;15.87;;
21798;SDS011;24973;47.178;15.316;2023-02-23T16:46:16;23.93;;;16.47;;
21798;SDS011;24973;47.178;15.316;2023-02-23T16:49:07;25.50;;;15.97;;
21798;SDS011;24973;47.178;15.316;2023-02-23T16:51:58;24.17;;;15.40;;
21798;SDS011;24973;47.178;15.316;2023-02-23T16:54:58;25.80;;;16.87;;
21798;SDS011;24973;47.178;15.316;2023-02-23T16:57:51;22.93;;;15.20;;
21798;SDS011;24973;47.178;15.316;2023-02-23T17:00:42;23.97;;;15.50;;
21798;SDS011;24973;47.178;15.316;2023-02-23T17:03:32;20.87;;;13.07;;
21798;SDS011;24973;47.178;15.316;2023-02-23T17:06:29;25.27;;;16.27;;
21798;SDS011;24973;47.178;15.316;2023-02-23T17:09:18;28.37;;;15.33;;
21798;SDS011;24973;47.178;15.316;2023-02-23T17:12:08;24.87;;;17.30;;